createdAt,value
2023-05-23T00:00:43.349Z,1008.21
2023-05-23T00:01:43.652Z,1008.22
2023-05-23T00:02:43.442Z,1008.21
2023-05-23T00:03:43.475Z,1008.17
2023-05-23T00:04:43.333Z,1008.19
2023-05-23T00:05:43.328Z,1008.17
2023-05-23T00:06:43.324Z,1008.18
2023-05-23T00:07:43.323Z,1008.19
2023-05-23T00:08:43.331Z,1008.17
2023-05-23T00:09:43.320Z,1008.17
2023-05-23T00:10:43.310Z,1008.17
2023-05-23T00:11:43.314Z,1008.17
2023-05-23T00:12:43.303Z,1008.15
2023-05-23T00:13:43.394Z,1008.16
2023-05-23T00:14:43.299Z,1008.19
2023-05-23T00:15:43.304Z,1008.18
2023-05-23T00:16:43.305Z,1008.17
2023-05-23T00:17:43.331Z,1008.11
2023-05-23T00:18:43.343Z,1008.13
2023-05-23T00:19:43.281Z,1008.12
2023-05-23T00:20:43.379Z,1008.12
2023-05-23T00:21:43.282Z,1008.05
2023-05-23T00:22:43.415Z,1008.06
2023-05-23T00:23:43.268Z,1008.10
2023-05-23T00:24:43.264Z,1008.06
2023-05-23T00:25:43.326Z,1008.01
2023-05-23T00:26:43.262Z,1008.05
2023-05-23T00:27:43.284Z,1008.04
2023-05-23T00:28:43.248Z,1008.02
2023-05-23T00:29:43.334Z,1008.02
2023-05-23T00:30:43.310Z,1008.04
2023-05-23T00:31:43.269Z,1008.03
2023-05-23T00:32:43.268Z,1008.06
2023-05-23T00:33:43.271Z,1008.07
2023-05-23T00:34:43.229Z,1008.07
2023-05-23T00:35:43.227Z,1008.05
2023-05-23T00:36:43.217Z,1008.02
2023-05-23T00:37:43.225Z,1008.05
2023-05-23T00:38:43.243Z,1008.01
2023-05-23T00:39:43.206Z,1008.03
2023-05-23T00:40:43.208Z,1008.01
2023-05-23T00:41:43.202Z,1008.02
2023-05-23T00:42:43.200Z,1008.00
2023-05-23T00:43:43.197Z,1007.99
2023-05-23T00:44:43.192Z,1007.98
2023-05-23T00:45:43.360Z,1007.95
2023-05-23T00:46:43.218Z,1008.01
2023-05-23T00:47:43.196Z,1007.98
2023-05-23T00:48:43.180Z,1007.96
2023-05-23T00:49:43.173Z,1007.96
2023-05-23T00:50:43.177Z,1007.94
2023-05-23T00:51:43.218Z,1007.93
2023-05-23T00:52:43.161Z,1007.92
2023-05-23T00:53:43.158Z,1007.92
2023-05-23T00:54:43.157Z,1007.88
2023-05-23T00:55:43.330Z,1007.87
2023-05-23T00:56:43.147Z,1007.87
2023-05-23T00:57:43.146Z,1007.86
2023-05-23T00:58:43.138Z,1007.84
2023-05-23T00:59:43.135Z,1007.81
2023-05-23T01:00:43.136Z,1007.83
2023-05-23T01:01:43.343Z,1007.80
2023-05-23T01:02:43.177Z,1007.80
2023-05-23T01:03:43.204Z,1007.81
2023-05-23T01:04:43.119Z,1007.77
2023-05-23T01:05:43.248Z,1007.77
2023-05-23T01:06:43.103Z,1007.79
2023-05-23T01:07:43.099Z,1007.78
2023-05-23T01:08:43.107Z,1007.80
2023-05-23T01:09:43.090Z,1007.83
2023-05-23T01:10:43.087Z,1007.81
2023-05-23T01:11:43.085Z,1007.80
2023-05-23T01:12:43.078Z,1007.78
2023-05-23T01:13:43.081Z,1007.79
2023-05-23T01:14:43.073Z,1007.79
2023-05-23T01:15:43.279Z,1007.77
2023-05-23T01:16:43.102Z,1007.77
2023-05-23T01:17:43.159Z,1007.76
2023-05-23T01:18:43.056Z,1007.76
2023-05-23T01:19:43.063Z,1007.77
2023-05-23T01:20:43.053Z,1007.76
2023-05-23T01:21:43.065Z,1007.75
2023-05-23T01:22:43.044Z,1007.76
2023-05-23T01:23:43.032Z,1007.78
2023-05-23T01:24:43.028Z,1007.79
2023-05-23T01:25:43.072Z,1007.77
2023-05-23T01:26:43.021Z,1007.76
2023-05-23T01:27:43.061Z,1007.78
2023-05-23T01:28:43.013Z,1007.78
2023-05-23T01:29:43.010Z,1007.79
2023-05-23T01:30:43.004Z,1007.80
2023-05-23T01:31:43.050Z,1007.76
2023-05-23T01:32:43.059Z,1007.75
2023-05-23T01:33:42.997Z,1007.75
2023-05-23T01:34:42.994Z,1007.72
2023-05-23T01:35:42.991Z,1007.74
2023-05-23T01:36:43.034Z,1007.70
2023-05-23T01:37:42.980Z,1007.73
2023-05-23T01:38:43.064Z,1007.74
2023-05-23T01:39:42.975Z,1007.70
2023-05-23T01:40:42.966Z,1007.71
2023-05-23T01:41:42.963Z,1007.69
2023-05-23T01:42:42.958Z,1007.66
2023-05-23T01:43:42.956Z,1007.64
2023-05-23T01:44:42.972Z,1007.65
2023-05-23T01:45:43.110Z,1007.65
2023-05-23T01:46:42.945Z,1007.61
2023-05-23T01:47:42.959Z,1007.59
2023-05-23T01:48:42.936Z,1007.60
2023-05-23T01:49:43.018Z,1007.59
2023-05-23T01:50:42.934Z,1007.58
2023-05-23T01:51:42.942Z,1007.57
2023-05-23T01:52:42.923Z,1007.59
2023-05-23T01:53:42.919Z,1007.60
2023-05-23T01:54:42.919Z,1007.55
2023-05-23T01:55:42.918Z,1007.56
2023-05-23T01:56:42.909Z,1007.54
2023-05-23T01:57:42.915Z,1007.55
2023-05-23T01:58:42.897Z,1007.52
2023-05-23T01:59:42.901Z,1007.50
2023-05-23T02:00:42.889Z,1007.53
2023-05-23T02:01:42.916Z,1007.52
2023-05-23T02:02:42.946Z,1007.50
2023-05-23T02:03:42.963Z,1007.54
2023-05-23T02:04:42.880Z,1007.50
2023-05-23T02:05:43.372Z,1007.52
2023-05-23T02:06:42.881Z,1007.52
2023-05-23T02:07:42.858Z,1007.53
2023-05-23T02:08:42.861Z,1007.57
2023-05-23T02:09:42.860Z,1007.58
2023-05-23T02:10:42.870Z,1007.57
2023-05-23T02:11:42.874Z,1007.62
2023-05-23T02:12:42.846Z,1007.61
2023-05-23T02:13:42.848Z,1007.62
2023-05-23T02:14:42.835Z,1007.61
2023-05-23T02:15:42.974Z,1007.60
2023-05-23T02:16:42.879Z,1007.63
2023-05-23T02:17:42.885Z,1007.61
2023-05-23T02:18:42.834Z,1007.61
2023-05-23T02:19:42.818Z,1007.60
2023-05-23T02:20:42.836Z,1007.60
2023-05-23T02:21:42.903Z,1007.58
2023-05-23T02:22:42.802Z,1007.55
2023-05-23T02:23:42.812Z,1007.55
2023-05-23T02:24:42.799Z,1007.57
2023-05-23T02:25:43.089Z,1007.57
2023-05-23T02:26:42.793Z,1007.57
2023-05-23T02:27:42.784Z,1007.60
2023-05-23T02:28:42.779Z,1007.59
2023-05-23T02:29:42.786Z,1007.58
2023-05-23T02:30:42.771Z,1007.61
2023-05-23T02:31:42.874Z,1007.60
2023-05-23T02:32:42.821Z,1007.64
2023-05-23T02:33:42.765Z,1007.65
2023-05-23T02:34:42.767Z,1007.63
2023-05-23T02:35:42.948Z,1007.62
2023-05-23T02:36:42.744Z,1007.64
2023-05-23T02:37:42.850Z,1007.63
2023-05-23T02:38:42.745Z,1007.58
2023-05-23T02:39:42.740Z,1007.61
2023-05-23T02:40:42.735Z,1007.64
2023-05-23T02:41:42.730Z,1007.62
2023-05-23T02:42:42.752Z,1007.58
2023-05-23T02:43:43.465Z,1007.60
2023-05-23T02:44:42.714Z,1007.61
2023-05-23T02:45:43.127Z,1007.58
2023-05-23T02:46:42.853Z,1007.58
2023-05-23T02:47:42.756Z,1007.61
2023-05-23T02:48:42.713Z,1007.58
2023-05-23T02:49:42.703Z,1007.60
2023-05-23T02:50:42.695Z,1007.57
2023-05-23T02:51:42.697Z,1007.56
2023-05-23T02:52:42.690Z,1007.52
2023-05-23T02:53:42.787Z,1007.54
2023-05-23T02:54:42.678Z,1007.51
2023-05-23T02:55:42.912Z,1007.54
2023-05-23T02:56:42.672Z,1007.53
2023-05-23T02:57:42.669Z,1007.52
2023-05-23T02:58:42.661Z,1007.49
2023-05-23T02:59:42.678Z,1007.49
2023-05-23T03:00:42.652Z,1007.48
2023-05-23T03:01:42.712Z,1007.49
2023-05-23T03:02:42.710Z,1007.46
2023-05-23T03:03:42.794Z,1007.46
2023-05-23T03:04:42.667Z,1007.42
2023-05-23T03:05:42.899Z,1007.43
2023-05-23T03:06:42.636Z,1007.42
2023-05-23T03:07:42.696Z,1007.38
2023-05-23T03:08:42.638Z,1007.38
2023-05-23T03:09:42.764Z,1007.32
2023-05-23T03:10:42.645Z,1007.31
2023-05-23T03:11:42.649Z,1007.29
2023-05-23T03:12:42.665Z,1007.28
2023-05-23T03:13:42.615Z,1007.27
2023-05-23T03:14:42.612Z,1007.28
2023-05-23T03:15:42.731Z,1007.28
2023-05-23T03:16:42.732Z,1007.35
2023-05-23T03:17:42.782Z,1007.33
2023-05-23T03:18:42.618Z,1007.33
2023-05-23T03:19:42.669Z,1007.29
2023-05-23T03:20:42.595Z,1007.31
2023-05-23T03:21:42.592Z,1007.29
2023-05-23T03:22:42.586Z,1007.28
2023-05-23T03:23:42.581Z,1007.27
2023-05-23T03:24:42.569Z,1007.28
2023-05-23T03:25:42.800Z,1007.30
2023-05-23T03:26:42.561Z,1007.26
2023-05-23T03:27:42.594Z,1007.31
2023-05-23T03:28:42.554Z,1007.33
2023-05-23T03:29:42.554Z,1007.32
2023-05-23T03:30:42.543Z,1007.40
2023-05-23T03:31:42.602Z,1007.39
2023-05-23T03:32:42.618Z,1007.40
2023-05-23T03:33:42.531Z,1007.36
2023-05-23T03:34:42.534Z,1007.39
2023-05-23T03:35:42.734Z,1007.40
2023-05-23T03:36:42.519Z,1007.41
2023-05-23T03:37:42.533Z,1007.40
2023-05-23T03:38:42.510Z,1007.36
2023-05-23T03:39:42.509Z,1007.37
2023-05-23T03:40:42.506Z,1007.36
2023-05-23T03:41:42.600Z,1007.31
2023-05-23T03:42:42.498Z,1007.32
2023-05-23T03:43:42.488Z,1007.32
2023-05-23T03:44:42.484Z,1007.34
2023-05-23T03:45:42.670Z,1007.34
2023-05-23T03:46:42.545Z,1007.35
2023-05-23T03:47:42.506Z,1007.33
2023-05-23T03:48:42.468Z,1007.30
2023-05-23T03:49:42.466Z,1007.28
2023-05-23T03:50:42.461Z,1007.27
2023-05-23T03:51:42.453Z,1007.27
2023-05-23T03:52:42.460Z,1007.26
2023-05-23T03:53:42.446Z,1007.29
2023-05-23T03:54:42.449Z,1007.30
2023-05-23T03:55:42.798Z,1007.28
2023-05-23T03:56:42.442Z,1007.30
2023-05-23T03:57:42.535Z,1007.30
2023-05-23T03:58:42.431Z,1007.29
2023-05-23T03:59:42.422Z,1007.29
2023-05-23T04:00:42.417Z,1007.27
2023-05-23T04:01:42.421Z,1007.28
2023-05-23T04:02:42.519Z,1007.28
2023-05-23T04:03:42.534Z,1007.29
2023-05-23T04:04:42.421Z,1007.28
2023-05-23T04:05:42.724Z,1007.28
2023-05-23T04:06:42.400Z,1007.27
2023-05-23T04:07:42.394Z,1007.29
2023-05-23T04:08:42.387Z,1007.30
2023-05-23T04:09:42.388Z,1007.32
2023-05-23T04:10:42.382Z,1007.27
2023-05-23T04:11:42.371Z,1007.29
2023-05-23T04:12:42.377Z,1007.30
2023-05-23T04:13:42.366Z,1007.27
2023-05-23T04:14:42.358Z,1007.30
2023-05-23T04:15:42.577Z,1007.29
2023-05-23T04:16:42.449Z,1007.26
2023-05-23T04:17:42.423Z,1007.21
2023-05-23T04:18:42.341Z,1007.22
2023-05-23T04:19:42.446Z,1007.20
2023-05-23T04:20:42.332Z,1007.23
2023-05-23T04:21:42.323Z,1007.21
2023-05-23T04:22:42.335Z,1007.25
2023-05-23T04:23:42.303Z,1007.21
2023-05-23T04:24:42.306Z,1007.23
2023-05-23T04:25:42.488Z,1007.19
2023-05-23T04:26:42.289Z,1007.20
2023-05-23T04:27:42.295Z,1007.16
2023-05-23T04:28:42.282Z,1007.17
2023-05-23T04:29:42.364Z,1007.17
2023-05-23T04:30:42.270Z,1007.14
2023-05-23T04:31:42.286Z,1007.16
2023-05-23T04:32:42.291Z,1007.18
2023-05-23T04:33:42.261Z,1007.18
2023-05-23T04:34:42.261Z,1007.19
2023-05-23T04:35:42.348Z,1007.19
2023-05-23T04:36:42.251Z,1007.23
2023-05-23T04:37:42.247Z,1007.21
2023-05-23T04:38:42.239Z,1007.21
2023-05-23T04:39:42.334Z,1007.22
2023-05-23T04:40:42.236Z,1007.19
2023-05-23T04:41:42.228Z,1007.20
2023-05-23T04:42:42.223Z,1007.22
2023-05-23T04:43:42.211Z,1007.19
2023-05-23T04:44:42.215Z,1007.20
2023-05-23T04:45:42.624Z,1007.19
2023-05-23T04:46:42.543Z,1007.21
2023-05-23T04:47:42.251Z,1007.16
2023-05-23T04:48:42.213Z,1007.19
2023-05-23T04:49:42.200Z,1007.20
2023-05-23T04:50:42.191Z,1007.20
2023-05-23T04:51:42.188Z,1007.18
2023-05-23T04:52:42.181Z,1007.19
2023-05-23T04:53:42.210Z,1007.23
2023-05-23T04:54:42.173Z,1007.20
2023-05-23T04:55:42.426Z,1007.18
2023-05-23T04:56:42.162Z,1007.17
2023-05-23T04:57:42.160Z,1007.15
2023-05-23T04:58:42.206Z,1007.17
2023-05-23T04:59:42.152Z,1007.14
2023-05-23T05:00:42.375Z,1007.15
2023-05-23T05:01:42.316Z,1007.17
2023-05-23T05:02:42.185Z,1007.21
2023-05-23T05:03:42.149Z,1007.17
2023-05-23T05:04:42.125Z,1007.20
2023-05-23T05:05:42.129Z,1007.25
2023-05-23T05:06:42.119Z,1007.25
2023-05-23T05:07:42.114Z,1007.25
2023-05-23T05:08:42.118Z,1007.23
2023-05-23T05:09:42.104Z,1007.21
2023-05-23T05:10:42.339Z,1007.23
2023-05-23T05:11:42.098Z,1007.25
2023-05-23T05:12:42.093Z,1007.24
2023-05-23T05:13:42.089Z,1007.24
2023-05-23T05:14:42.083Z,1007.26
2023-05-23T05:15:42.080Z,1007.27
2023-05-23T05:16:42.092Z,1007.27
2023-05-23T05:17:42.243Z,1007.26
2023-05-23T05:18:42.065Z,1007.24
2023-05-23T05:19:42.062Z,1007.24
2023-05-23T05:20:42.224Z,1007.26
2023-05-23T05:21:42.058Z,1007.28
2023-05-23T05:22:42.054Z,1007.30
2023-05-23T05:23:42.062Z,1007.35
2023-05-23T05:24:42.041Z,1007.36
2023-05-23T05:25:42.036Z,1007.37
2023-05-23T05:26:42.047Z,1007.36
2023-05-23T05:27:42.025Z,1007.40
2023-05-23T05:28:42.023Z,1007.42
2023-05-23T05:29:42.029Z,1007.38
2023-05-23T05:30:42.224Z,1007.39
2023-05-23T05:31:42.034Z,1007.36
2023-05-23T05:32:42.026Z,1007.33
2023-05-23T05:33:42.089Z,1007.34
2023-05-23T05:34:41.998Z,1007.38
2023-05-23T05:35:41.993Z,1007.38
2023-05-23T05:36:41.992Z,1007.40
2023-05-23T05:37:41.990Z,1007.39
2023-05-23T05:38:41.999Z,1007.43
2023-05-23T05:39:41.982Z,1007.42
2023-05-23T05:40:42.136Z,1007.43
2023-05-23T05:41:41.967Z,1007.41
2023-05-23T05:42:41.964Z,1007.41
2023-05-23T05:43:41.974Z,1007.41
2023-05-23T05:44:42.013Z,1007.42
2023-05-23T05:45:41.953Z,1007.39
2023-05-23T05:46:41.977Z,1007.35
2023-05-23T05:47:42.003Z,1007.39
2023-05-23T05:48:41.939Z,1007.37
2023-05-23T05:49:42.024Z,1007.35
2023-05-23T05:50:42.117Z,1007.36
2023-05-23T05:51:41.930Z,1007.39
2023-05-23T05:52:41.924Z,1007.37
2023-05-23T05:53:41.923Z,1007.31
2023-05-23T05:54:41.916Z,1007.33
2023-05-23T05:55:41.910Z,1007.30
2023-05-23T05:56:41.908Z,1007.28
2023-05-23T05:57:41.903Z,1007.28
2023-05-23T05:58:41.899Z,1007.24
2023-05-23T05:59:41.920Z,1007.23
2023-05-23T06:00:42.168Z,1007.22
2023-05-23T06:01:41.890Z,1007.17
2023-05-23T06:02:41.967Z,1007.15
2023-05-23T06:03:42.050Z,1007.12
2023-05-23T06:04:41.918Z,1007.14
2023-05-23T06:05:41.959Z,1007.15
2023-05-23T06:06:41.886Z,1007.16
2023-05-23T06:07:41.893Z,1007.17
2023-05-23T06:08:41.859Z,1007.19
2023-05-23T06:09:41.863Z,1007.19
2023-05-23T06:10:42.267Z,1007.18
2023-05-23T06:11:41.849Z,1007.19
2023-05-23T06:12:41.839Z,1007.17
2023-05-23T06:13:41.841Z,1007.17
2023-05-23T06:14:41.834Z,1007.15
2023-05-23T06:15:41.837Z,1007.11
2023-05-23T06:16:41.864Z,1007.16
2023-05-23T06:17:41.893Z,1007.14
2023-05-23T06:18:41.821Z,1007.14
2023-05-23T06:19:41.812Z,1007.12
2023-05-23T06:20:41.982Z,1007.17
2023-05-23T06:21:41.943Z,1007.18
2023-05-23T06:22:41.809Z,1007.15
2023-05-23T06:23:41.806Z,1007.16
2023-05-23T06:24:41.806Z,1007.20
2023-05-23T06:25:41.801Z,1007.17
2023-05-23T06:26:41.787Z,1007.18
2023-05-23T06:27:41.783Z,1007.19
2023-05-23T06:28:41.802Z,1007.20
2023-05-23T06:29:41.779Z,1007.18
2023-05-23T06:30:42.075Z,1007.17
2023-05-23T06:31:41.813Z,1007.18
2023-05-23T06:32:41.784Z,1007.24
2023-05-23T06:33:41.761Z,1007.20
2023-05-23T06:34:41.759Z,1007.21
2023-05-23T06:35:41.752Z,1007.20
2023-05-23T06:36:41.748Z,1007.23
2023-05-23T06:37:41.806Z,1007.22
2023-05-23T06:38:41.759Z,1007.24
2023-05-23T06:39:41.741Z,1007.26
2023-05-23T06:40:41.918Z,1007.23
2023-05-23T06:41:41.727Z,1007.24
2023-05-23T06:42:41.757Z,1007.22
2023-05-23T06:43:41.716Z,1007.22
2023-05-23T06:44:41.718Z,1007.28
2023-05-23T06:45:41.727Z,1007.22
2023-05-23T06:46:41.706Z,1007.26
2023-05-23T06:47:41.756Z,1007.25
2023-05-23T06:48:41.700Z,1007.24
2023-05-23T06:49:41.697Z,1007.21
2023-05-23T06:50:42.070Z,1007.24
2023-05-23T06:51:41.818Z,1007.25
2023-05-23T06:52:41.684Z,1007.24
2023-05-23T06:53:41.766Z,1007.28
2023-05-23T06:54:41.676Z,1007.27
2023-05-23T06:55:41.673Z,1007.27
2023-05-23T06:56:41.676Z,1007.28
2023-05-23T06:57:41.668Z,1007.23
2023-05-23T06:58:41.665Z,1007.22
2023-05-23T06:59:41.656Z,1007.19
2023-05-23T07:00:42.025Z,1007.20
2023-05-23T07:01:41.673Z,1007.18
2023-05-23T07:02:41.720Z,1007.18
2023-05-23T07:03:41.647Z,1007.23
2023-05-23T07:04:41.649Z,1007.23
2023-05-23T07:05:41.725Z,1007.25
2023-05-23T07:06:41.639Z,1007.23
2023-05-23T07:07:41.636Z,1007.26
2023-05-23T07:08:41.631Z,1007.29
2023-05-23T07:09:41.661Z,1007.33
2023-05-23T07:10:42.143Z,1007.34
2023-05-23T07:11:41.625Z,1007.33
2023-05-23T07:12:41.620Z,1007.35
2023-05-23T07:13:41.621Z,1007.32
2023-05-23T07:14:41.619Z,1007.36
2023-05-23T07:15:41.623Z,1007.35
2023-05-23T07:16:41.673Z,1007.34
2023-05-23T07:17:41.675Z,1007.34
2023-05-23T07:18:41.609Z,1007.34
2023-05-23T07:19:41.636Z,1007.33
2023-05-23T07:20:41.922Z,1007.31
2023-05-23T07:21:41.601Z,1007.32
2023-05-23T07:22:41.603Z,1007.33
2023-05-23T07:23:41.595Z,1007.29
2023-05-23T07:24:41.596Z,1007.29
2023-05-23T07:25:47.075Z,1007.25
2023-05-23T07:26:41.597Z,1007.26
2023-05-23T07:27:41.592Z,1007.25
2023-05-23T07:28:41.584Z,1007.22
2023-05-23T07:29:41.589Z,1007.21
2023-05-23T07:30:41.697Z,1007.18
2023-05-23T07:31:41.679Z,1007.18
2023-05-23T07:32:41.587Z,1007.19
2023-05-23T07:33:41.577Z,1007.18
2023-05-23T07:34:41.579Z,1007.16
2023-05-23T07:35:41.567Z,1007.18
2023-05-23T07:36:41.564Z,1007.20
2023-05-23T07:37:41.571Z,1007.21
2023-05-23T07:38:41.568Z,1007.23
2023-05-23T07:39:41.562Z,1007.24
2023-05-23T07:40:41.762Z,1007.27
2023-05-23T07:41:41.560Z,1007.28
2023-05-23T07:42:41.554Z,1007.27
2023-05-23T07:43:41.688Z,1007.26
2023-05-23T07:44:41.552Z,1007.28
2023-05-23T07:45:41.548Z,1007.29
2023-05-23T07:46:41.598Z,1007.32
2023-05-23T07:47:41.549Z,1007.29
2023-05-23T07:48:41.547Z,1007.33
2023-05-23T07:49:41.537Z,1007.34
2023-05-23T07:50:41.681Z,1007.31
2023-05-23T07:51:41.534Z,1007.34
2023-05-23T07:52:41.544Z,1007.36
2023-05-23T07:53:41.538Z,1007.45
2023-05-23T07:54:41.533Z,1007.40
2023-05-23T07:55:41.530Z,1007.44
2023-05-23T07:56:41.532Z,1007.40
2023-05-23T07:57:41.526Z,1007.41
2023-05-23T07:58:41.522Z,1007.46
2023-05-23T07:59:41.533Z,1007.42
2023-05-23T08:00:41.699Z,1007.42
2023-05-23T08:01:41.553Z,1007.35
2023-05-23T08:02:41.589Z,1007.35
2023-05-23T08:03:41.520Z,1007.33
2023-05-23T08:04:41.676Z,1007.31
2023-05-23T08:05:41.530Z,1007.46
2023-05-23T08:06:51.957Z,1007.46
2023-05-23T08:07:41.524Z,1007.38
2023-05-23T08:08:41.521Z,1007.31
2023-05-23T08:09:41.534Z,1007.34
2023-05-23T08:10:41.770Z,1007.31
2023-05-23T08:11:41.524Z,1007.31
2023-05-23T08:12:41.524Z,1007.32
2023-05-23T08:13:41.524Z,1007.40
2023-05-23T08:14:50.578Z,1007.38
2023-05-23T08:15:41.538Z,1007.42
2023-05-23T08:16:41.596Z,1007.53
2023-05-23T08:17:41.617Z,1007.48
2023-05-23T08:18:41.576Z,1007.49
2023-05-23T08:19:41.549Z,1007.43
2023-05-23T08:20:41.823Z,1007.37
2023-05-23T08:21:41.541Z,1007.40
2023-05-23T08:22:41.534Z,1007.40
2023-05-23T08:23:41.558Z,1007.37
2023-05-23T08:24:41.535Z,1007.35
2023-05-23T08:25:41.538Z,1007.37
2023-05-23T08:26:41.533Z,1007.41
2023-05-23T08:27:41.539Z,1007.44
2023-05-23T08:28:41.541Z,1007.44
2023-05-23T08:29:41.538Z,1007.51
2023-05-23T08:30:41.721Z,1007.47
2023-05-23T08:31:41.571Z,1007.46
2023-05-23T08:32:41.540Z,1007.47
2023-05-23T08:33:41.542Z,1007.48
2023-05-23T08:34:41.556Z,1007.50
2023-05-23T08:35:41.538Z,1007.51
2023-05-23T08:36:41.536Z,1007.49
2023-05-23T08:37:41.539Z,1007.51
2023-05-23T08:38:41.546Z,1007.48
2023-05-23T08:39:41.533Z,1007.50
2023-05-23T08:40:41.707Z,1007.47
2023-05-23T08:41:41.539Z,1007.52
2023-05-23T08:42:41.638Z,1007.48
2023-05-23T08:43:41.537Z,1007.48
2023-05-23T08:44:41.534Z,1007.50
2023-05-23T08:45:41.538Z,1007.51
2023-05-23T08:46:41.547Z,1007.58
2023-05-23T08:47:41.561Z,1007.59
2023-05-23T08:48:41.531Z,1007.59
2023-05-23T08:49:41.532Z,1007.67
2023-05-23T08:50:41.785Z,1007.61
2023-05-23T08:51:41.528Z,1007.61
2023-05-23T08:52:41.534Z,1007.65
2023-05-23T08:53:41.527Z,1007.64
2023-05-23T08:54:41.525Z,1007.63
2023-05-23T08:55:41.751Z,1007.54
2023-05-23T08:56:41.533Z,1007.62
2023-05-23T08:57:41.536Z,1007.54
2023-05-23T08:58:41.525Z,1007.56
2023-05-23T08:59:41.529Z,1007.63
2023-05-23T09:00:41.656Z,1007.59
2023-05-23T09:01:41.642Z,1007.58
2023-05-23T09:02:41.586Z,1007.60
2023-05-23T09:03:41.525Z,1007.61
2023-05-23T09:04:41.523Z,1007.65
2023-05-23T09:05:41.576Z,1007.65
2023-05-23T09:06:41.581Z,1007.68
2023-05-23T09:07:41.544Z,1007.66
2023-05-23T09:08:41.521Z,1007.67
2023-05-23T09:09:41.565Z,1007.70
2023-05-23T09:10:41.709Z,1007.71
2023-05-23T09:11:41.526Z,1007.71
2023-05-23T09:12:41.532Z,1007.75
2023-05-23T09:13:41.526Z,1007.79
2023-05-23T09:14:41.526Z,1007.75
2023-05-23T09:15:41.528Z,1007.71
2023-05-23T09:16:41.851Z,1007.75
2023-05-23T09:17:41.723Z,1007.76
2023-05-23T09:18:41.564Z,1007.78
2023-05-23T09:19:41.575Z,1007.75
2023-05-23T09:20:41.867Z,1007.74
2023-05-23T09:21:41.532Z,1007.78
2023-05-23T09:22:41.535Z,1007.76
2023-05-23T09:23:41.536Z,1007.77
2023-05-23T09:24:41.536Z,1007.76
2023-05-23T09:25:41.535Z,1007.78
2023-05-23T09:26:41.542Z,1007.82
2023-05-23T09:27:41.541Z,1007.81
2023-05-23T09:28:41.546Z,1007.85
2023-05-23T09:29:41.556Z,1007.87
2023-05-23T09:30:41.761Z,1007.83
2023-05-23T09:31:41.638Z,1007.86
2023-05-23T09:32:41.603Z,1007.85
2023-05-23T09:33:41.551Z,1007.83
2023-05-23T09:34:41.550Z,1007.83
2023-05-23T09:35:41.554Z,1007.85
2023-05-23T09:36:41.548Z,1007.84
2023-05-23T09:37:41.572Z,1007.86
2023-05-23T09:38:41.557Z,1007.86
2023-05-23T09:39:41.567Z,1007.85
2023-05-23T09:40:41.808Z,1007.84
2023-05-23T09:41:41.575Z,1007.81
2023-05-23T09:42:41.553Z,1007.77
2023-05-23T09:43:41.554Z,1007.82
2023-05-23T09:44:41.552Z,1007.80
2023-05-23T09:45:41.554Z,1007.81
2023-05-23T09:46:41.598Z,1007.81
2023-05-23T09:47:41.565Z,1007.81
2023-05-23T09:48:41.559Z,1007.80
2023-05-23T09:49:41.561Z,1007.80
2023-05-23T09:50:41.751Z,1007.78
2023-05-23T09:51:41.564Z,1007.84
2023-05-23T09:52:41.561Z,1007.79
2023-05-23T09:53:41.561Z,1007.79
2023-05-23T09:54:41.567Z,1007.80
2023-05-23T09:55:41.567Z,1007.74
2023-05-23T09:56:41.578Z,1007.79
2023-05-23T09:57:41.563Z,1007.80
2023-05-23T09:58:41.563Z,1007.78
2023-05-23T09:59:41.578Z,1007.76
2023-05-23T10:00:41.839Z,1007.79
2023-05-23T10:01:41.609Z,1007.79
2023-05-23T10:02:41.603Z,1007.85
2023-05-23T10:03:41.573Z,1007.82
2023-05-23T10:04:41.641Z,1007.84
2023-05-23T10:05:41.576Z,1007.84
2023-05-23T10:06:41.565Z,1007.80
2023-05-23T10:07:41.571Z,1007.81
2023-05-23T10:08:41.571Z,1007.81
2023-05-23T10:09:41.614Z,1007.86
2023-05-23T10:10:41.821Z,1007.86
2023-05-23T10:11:41.571Z,1007.85
2023-05-23T10:12:41.594Z,1007.86
2023-05-23T10:13:41.586Z,1007.88
2023-05-23T10:14:41.572Z,1007.84
2023-05-23T10:15:41.573Z,1007.83
2023-05-23T10:16:41.622Z,1007.83
2023-05-23T10:17:41.633Z,1007.85
2023-05-23T10:18:41.580Z,1007.81
2023-05-23T10:19:41.621Z,1007.79
2023-05-23T10:20:41.942Z,1007.74
2023-05-23T10:21:42.333Z,1007.78
2023-05-23T10:22:41.578Z,1007.75
2023-05-23T10:23:41.579Z,1007.83
2023-05-23T10:24:41.581Z,1007.85
2023-05-23T10:25:41.581Z,1007.86
2023-05-23T10:26:41.584Z,1007.81
2023-05-23T10:27:41.595Z,1007.82
2023-05-23T10:28:41.581Z,1007.81
2023-05-23T10:29:41.598Z,1007.87
2023-05-23T10:30:41.994Z,1007.86
2023-05-23T10:31:41.667Z,1007.87
2023-05-23T10:32:41.599Z,1007.90
2023-05-23T10:33:41.588Z,1007.89
2023-05-23T10:34:41.591Z,1007.92
2023-05-23T10:35:41.671Z,1007.90
2023-05-23T10:36:41.592Z,1007.90
2023-05-23T10:37:41.584Z,1007.88
2023-05-23T10:38:41.589Z,1007.89
2023-05-23T10:39:41.586Z,1007.90
2023-05-23T10:40:41.937Z,1007.89
2023-05-23T10:41:41.583Z,1007.89
2023-05-23T10:42:41.598Z,1007.93
2023-05-23T10:43:41.598Z,1007.95
2023-05-23T10:44:41.595Z,1007.97
2023-05-23T10:45:41.611Z,1007.92
2023-05-23T10:46:41.598Z,1007.93
2023-05-23T10:47:41.622Z,1007.94
2023-05-23T10:48:41.590Z,1007.96
2023-05-23T10:49:41.621Z,1007.96
2023-05-23T10:50:42.129Z,1007.97
2023-05-23T10:51:41.590Z,1007.99
2023-05-23T10:52:41.650Z,1008.06
2023-05-23T10:53:41.628Z,1008.07
2023-05-23T10:54:41.592Z,1008.12
2023-05-23T10:55:41.592Z,1008.06
2023-05-23T10:56:41.589Z,1008.12
2023-05-23T10:57:41.588Z,1008.12
2023-05-23T10:58:41.604Z,1008.11
2023-05-23T10:59:41.584Z,1008.12
2023-05-23T11:00:41.899Z,1008.17
2023-05-23T11:01:41.606Z,1008.13
2023-05-23T11:02:41.643Z,1008.09
2023-05-23T11:03:41.774Z,1008.19
2023-05-23T11:04:41.607Z,1008.12
2023-05-23T11:05:41.590Z,1008.12
2023-05-23T11:06:41.588Z,1008.17
2023-05-23T11:07:41.688Z,1008.08
2023-05-23T11:08:47.769Z,1008.12
2023-05-23T11:09:41.593Z,1008.16
2023-05-23T11:10:41.817Z,1008.12
2023-05-23T11:11:41.590Z,1008.14
2023-05-23T11:12:41.602Z,1008.17
2023-05-23T11:13:41.592Z,1008.14
2023-05-23T11:14:41.589Z,1008.18
2023-05-23T11:15:41.595Z,1008.20
2023-05-23T11:16:41.736Z,1008.15
2023-05-23T11:17:41.610Z,1008.17
2023-05-23T11:18:41.588Z,1008.15
2023-05-23T11:19:41.650Z,1008.23
2023-05-23T11:20:41.816Z,1008.23
2023-05-23T11:21:41.594Z,1008.22
2023-05-23T11:22:41.588Z,1008.18
2023-05-23T11:23:41.637Z,1008.24
2023-05-23T11:24:41.585Z,1008.25
2023-05-23T11:25:41.584Z,1008.27
2023-05-23T11:26:41.584Z,1008.30
2023-05-23T11:27:41.615Z,1008.26
2023-05-23T11:28:41.583Z,1008.25
2023-05-23T11:29:41.604Z,1008.27
2023-05-23T11:30:41.999Z,1008.27
2023-05-23T11:31:41.610Z,1008.20
2023-05-23T11:32:41.619Z,1008.30
2023-05-23T11:33:41.623Z,1008.28
2023-05-23T11:34:41.607Z,1008.32
2023-05-23T11:35:41.658Z,1008.32
2023-05-23T11:36:41.633Z,1008.28
2023-05-23T11:37:41.597Z,1008.24
2023-05-23T11:38:41.589Z,1008.27
2023-05-23T11:39:41.655Z,1008.26
2023-05-23T11:40:42.277Z,1008.31
2023-05-23T11:41:41.682Z,1008.28
2023-05-23T11:42:41.634Z,1008.28
2023-05-23T11:43:41.669Z,1008.28
2023-05-23T11:44:41.708Z,1008.30
2023-05-23T11:45:41.719Z,1008.30
2023-05-23T11:46:41.640Z,1008.31
2023-05-23T11:47:41.688Z,1008.32
2023-05-23T11:48:41.719Z,1008.33
2023-05-23T11:49:41.653Z,1008.35
2023-05-23T11:50:41.902Z,1008.36
2023-05-23T11:51:41.585Z,1008.34
2023-05-23T11:52:41.573Z,1008.32
2023-05-23T11:53:41.570Z,1008.33
2023-05-23T11:54:41.573Z,1008.38
2023-05-23T11:55:41.581Z,1008.35
2023-05-23T11:56:41.570Z,1008.39
2023-05-23T11:57:41.565Z,1008.38
2023-05-23T11:58:41.596Z,1008.44
2023-05-23T11:59:41.566Z,1008.39
2023-05-23T12:00:41.782Z,1008.37
2023-05-23T12:01:41.591Z,1008.37
2023-05-23T12:02:41.809Z,1008.47
2023-05-23T12:03:41.706Z,1008.46
2023-05-23T12:04:41.628Z,1008.45
2023-05-23T12:05:41.565Z,1008.46